createdAt,value
2022-08-25T00:01:05.931Z,95720
2022-08-25T00:02:15.643Z,95717
2022-08-25T00:03:25.290Z,95714
2022-08-25T00:04:34.929Z,95716
2022-08-25T00:05:45.599Z,95715
2022-08-25T00:06:58.339Z,95716
2022-08-25T00:08:06.177Z,95712
2022-08-25T00:09:15.649Z,95711
2022-08-25T00:10:25.339Z,95710
2022-08-25T00:11:33.991Z,95709
2022-08-25T00:12:43.658Z,95704
2022-08-25T00:13:52.333Z,95704
2022-08-25T00:15:02.025Z,95704
2022-08-25T00:16:11.761Z,95707
2022-08-25T00:17:20.368Z,95701
2022-08-25T00:18:29.057Z,95702
2022-08-25T00:19:38.813Z,95703
2022-08-25T00:20:48.718Z,95701
2022-08-25T00:21:56.191Z,95701
2022-08-25T00:23:05.847Z,95701
2022-08-25T00:24:15.849Z,95701
2022-08-25T00:25:25.539Z,95699
2022-08-25T00:26:34.237Z,95697
2022-08-25T00:27:43.897Z,95701
2022-08-25T00:28:54.165Z,95706
2022-08-25T00:30:04.186Z,95706
2022-08-25T00:31:13.844Z,95704
2022-08-25T00:32:22.531Z,95709
2022-08-25T00:33:32.195Z,95706
2022-08-25T00:34:41.897Z,95708
2022-08-25T00:35:49.558Z,95704
2022-08-25T00:36:59.247Z,95702
2022-08-25T00:38:08.948Z,95702
2022-08-25T00:39:18.600Z,95705
2022-08-25T00:40:27.439Z,95701
2022-08-25T00:41:37.018Z,95699
2022-08-25T00:42:46.695Z,95702
2022-08-25T00:43:56.400Z,95697
2022-08-25T00:45:04.071Z,95702
2022-08-25T00:46:12.780Z,95695
2022-08-25T00:47:22.386Z,95699
2022-08-25T00:48:30.179Z,95693
2022-08-25T00:49:38.909Z,95691
2022-08-25T00:50:47.565Z,95689
2022-08-25T00:51:56.217Z,95690
2022-08-25T00:53:05.883Z,95687
2022-08-25T00:54:13.561Z,95686
2022-08-25T00:55:22.365Z,95684
2022-08-25T00:56:32.022Z,95687
2022-08-25T00:57:40.717Z,95682
2022-08-25T00:58:49.419Z,95685
2022-08-25T00:59:58.106Z,95684
2022-08-25T01:01:06.829Z,95680
2022-08-25T01:02:16.498Z,95681
2022-08-25T01:03:31.530Z,95683
2022-08-25T01:04:33.791Z,95681
2022-08-25T01:05:43.506Z,95686
2022-08-25T01:06:52.178Z,95684
2022-08-25T01:08:00.891Z,95685
2022-08-25T01:09:09.524Z,95682
2022-08-25T01:10:19.186Z,95684
2022-08-25T01:11:28.850Z,95679
2022-08-25T01:12:38.554Z,95686
2022-08-25T01:13:47.224Z,95680
2022-08-25T01:14:56.896Z,95683
2022-08-25T01:16:04.633Z,95683
2022-08-25T01:17:14.247Z,95684
2022-08-25T01:18:21.939Z,95679
2022-08-25T01:19:30.603Z,95680
2022-08-25T01:20:40.280Z,95674
2022-08-25T01:21:47.948Z,95675
2022-08-25T01:22:57.605Z,95673
2022-08-25T01:24:07.297Z,95673
2022-08-25T01:25:14.947Z,95676
2022-08-25T01:26:25.178Z,95674
2022-08-25T01:27:34.287Z,95675
2022-08-25T01:28:43.954Z,95673
2022-08-25T01:29:53.786Z,95671
2022-08-25T01:31:01.477Z,95673
2022-08-25T01:32:11.087Z,95672
2022-08-25T01:33:20.771Z,95672
2022-08-25T01:34:29.437Z,95672
2022-08-25T01:35:38.125Z,95671
2022-08-25T01:36:46.782Z,95669
2022-08-25T01:37:55.435Z,95672
2022-08-25T01:39:04.110Z,95675
2022-08-25T01:40:13.894Z,95676
2022-08-25T01:41:22.533Z,95675
2022-08-25T01:42:33.237Z,95674
2022-08-25T01:43:41.889Z,95676
2022-08-25T01:44:50.568Z,95674
2022-08-25T01:45:59.277Z,95676
2022-08-25T01:47:07.932Z,95678
2022-08-25T01:48:17.618Z,95680
2022-08-25T01:49:26.331Z,95676
2022-08-25T01:50:34.953Z,95675
2022-08-25T01:51:44.605Z,95669
2022-08-25T01:52:53.333Z,95672
2022-08-25T01:54:03.052Z,95674
2022-08-25T01:55:11.732Z,95673
2022-08-25T01:56:20.389Z,95673
2022-08-25T01:57:30.075Z,95672
2022-08-25T01:58:38.853Z,95670
2022-08-25T01:59:47.528Z,95667
2022-08-25T02:00:57.359Z,95669
2022-08-25T02:02:05.903Z,95667
2022-08-25T02:03:18.792Z,95667
2022-08-25T02:04:25.371Z,95666
2022-08-25T02:05:34.052Z,95672
2022-08-25T02:06:42.725Z,95673
2022-08-25T02:07:52.404Z,95669
2022-08-25T02:09:01.103Z,95673
2022-08-25T02:10:09.755Z,95670
2022-08-25T02:11:18.536Z,95673
2022-08-25T02:12:28.333Z,95671
2022-08-25T02:13:36.069Z,95672
2022-08-25T02:14:44.745Z,95672
2022-08-25T02:15:53.445Z,95671
2022-08-25T02:17:03.125Z,95670
2022-08-25T02:18:12.726Z,95669
2022-08-25T02:19:20.401Z,95666
2022-08-25T02:20:29.041Z,95663
2022-08-25T02:21:38.779Z,95669
2022-08-25T02:22:53.171Z,95666
2022-08-25T02:23:57.088Z,95663
2022-08-25T02:25:05.757Z,95662
2022-08-25T02:26:14.499Z,95665
2022-08-25T02:27:24.174Z,95662
2022-08-25T02:28:32.876Z,95666
2022-08-25T02:29:42.516Z,95668
2022-08-25T02:30:52.206Z,95660
2022-08-25T02:32:02.808Z,95662
2022-08-25T02:33:12.605Z,95665
2022-08-25T02:34:22.284Z,95665
2022-08-25T02:35:31.016Z,95665
2022-08-25T02:36:40.709Z,95668
2022-08-25T02:37:50.357Z,95664
2022-08-25T02:38:59.031Z,95668
2022-08-25T02:40:08.713Z,95665
2022-08-25T02:41:18.370Z,95665
2022-08-25T02:42:28.160Z,95667
2022-08-25T02:43:37.842Z,95667
2022-08-25T02:44:45.512Z,95662
2022-08-25T02:45:55.250Z,95661
2022-08-25T02:47:03.845Z,95660
2022-08-25T02:48:12.491Z,95659
2022-08-25T02:49:22.200Z,95659
2022-08-25T02:50:31.013Z,95660
2022-08-25T02:51:39.614Z,95655
2022-08-25T02:52:49.329Z,95653
2022-08-25T02:53:58.004Z,95655
2022-08-25T02:55:07.688Z,95654
2022-08-25T02:56:16.369Z,95651
2022-08-25T02:57:26.026Z,95652
2022-08-25T02:58:35.704Z,95648
2022-08-25T02:59:44.358Z,95646
2022-08-25T03:00:54.115Z,95647
2022-08-25T03:02:02.728Z,95647
2022-08-25T03:03:11.375Z,95644
2022-08-25T03:04:21.062Z,95644
2022-08-25T03:05:28.751Z,95646
2022-08-25T03:06:38.460Z,95644
2022-08-25T03:07:48.185Z,95645
2022-08-25T03:08:57.902Z,95645
2022-08-25T03:10:06.573Z,95646
2022-08-25T03:11:15.252Z,95641
2022-08-25T03:12:23.928Z,95642
2022-08-25T03:13:33.627Z,95642
2022-08-25T03:14:41.285Z,95643
2022-08-25T03:15:50.950Z,95642
2022-08-25T03:17:00.674Z,95647
2022-08-25T03:18:11.301Z,95646
2022-08-25T03:19:19.979Z,95642
2022-08-25T03:20:28.667Z,95643
2022-08-25T03:21:38.350Z,95639
2022-08-25T03:22:48.004Z,95637
2022-08-25T03:23:56.679Z,95633
2022-08-25T03:25:05.363Z,95642
2022-08-25T03:26:16.026Z,95642
2022-08-25T03:27:24.749Z,95642
2022-08-25T03:28:33.438Z,95641
2022-08-25T03:29:43.177Z,95641
2022-08-25T03:30:53.442Z,95641
2022-08-25T03:32:01.593Z,95641
2022-08-25T03:33:11.169Z,95640
2022-08-25T03:34:20.889Z,95635
2022-08-25T03:35:30.943Z,95643
2022-08-25T03:36:39.354Z,95642
2022-08-25T03:37:49.046Z,95634
2022-08-25T03:38:57.741Z,95640
2022-08-25T03:40:07.446Z,95640
2022-08-25T03:41:18.139Z,95639
2022-08-25T03:42:25.811Z,95639
2022-08-25T03:43:34.470Z,95637
2022-08-25T03:44:44.161Z,95638
2022-08-25T03:45:53.851Z,95639
2022-08-25T03:47:02.506Z,95637
2022-08-25T03:48:12.191Z,95638
2022-08-25T03:49:20.845Z,95633
2022-08-25T03:50:30.526Z,95636
2022-08-25T03:51:39.229Z,95638
2022-08-25T03:52:47.920Z,95635
2022-08-25T03:53:57.618Z,95632
2022-08-25T03:55:05.291Z,95632
2022-08-25T03:56:13.972Z,95632
2022-08-25T03:57:23.646Z,95630
2022-08-25T03:58:32.379Z,95628
2022-08-25T03:59:41.085Z,95631
2022-08-25T04:00:50.756Z,95629
2022-08-25T04:02:00.489Z,95629
2022-08-25T04:03:08.101Z,95633
2022-08-25T04:04:16.805Z,95627
2022-08-25T04:05:26.697Z,95634
2022-08-25T04:06:37.362Z,95636
2022-08-25T04:07:47.134Z,95635
2022-08-25T04:08:55.844Z,95634
2022-08-25T04:10:05.574Z,95633
2022-08-25T04:11:15.275Z,95637
2022-08-25T04:12:24.035Z,95634
2022-08-25T04:13:32.741Z,95636
2022-08-25T04:14:42.430Z,95636
2022-08-25T04:15:51.105Z,95635
2022-08-25T04:16:59.864Z,95634
2022-08-25T04:18:09.449Z,95637
2022-08-25T04:19:18.104Z,95637
2022-08-25T04:20:27.766Z,95642
2022-08-25T04:21:36.443Z,95642
2022-08-25T04:22:45.300Z,95639
2022-08-25T04:23:54.896Z,95638
2022-08-25T04:25:02.584Z,95636
2022-08-25T04:26:12.217Z,95640
2022-08-25T04:27:21.879Z,95636
2022-08-25T04:28:30.640Z,95640
2022-08-25T04:29:40.303Z,95636
2022-08-25T04:30:51.504Z,95637
2022-08-25T04:31:56.741Z,95639
2022-08-25T04:33:06.309Z,95640
2022-08-25T04:34:20.036Z,95641
2022-08-25T04:35:23.753Z,95641
2022-08-25T04:36:33.428Z,95643
2022-08-25T04:37:43.085Z,95642
2022-08-25T04:38:52.755Z,95644
2022-08-25T04:40:01.579Z,95640
2022-08-25T04:41:11.164Z,95638
2022-08-25T04:42:20.843Z,95639
2022-08-25T04:43:28.732Z,95641
2022-08-25T04:44:37.473Z,95642
2022-08-25T04:45:46.240Z,95640
2022-08-25T04:46:54.868Z,95640
2022-08-25T04:48:04.644Z,95642
2022-08-25T04:49:13.251Z,95642
2022-08-25T04:50:21.922Z,95644
2022-08-25T04:51:31.800Z,95644
2022-08-25T04:52:40.498Z,95647
2022-08-25T04:53:50.186Z,95644
2022-08-25T04:54:58.842Z,95644
2022-08-25T04:56:08.503Z,95637
2022-08-25T04:57:16.230Z,95634
2022-08-25T04:58:24.908Z,95634
2022-08-25T04:59:33.574Z,95630
2022-08-25T05:00:42.235Z,95632
2022-08-25T05:01:52.305Z,95630
2022-08-25T05:03:01.559Z,95631
2022-08-25T05:04:14.523Z,95627
2022-08-25T05:05:21.865Z,95627
2022-08-25T05:06:29.511Z,95631
2022-08-25T05:07:38.168Z,95630
2022-08-25T05:08:46.835Z,95631
2022-08-25T05:09:55.478Z,95630
2022-08-25T05:11:05.204Z,95634
2022-08-25T05:12:13.908Z,95632
2022-08-25T05:13:23.563Z,95639
2022-08-25T05:14:33.278Z,95638
2022-08-25T05:15:41.967Z,95636
2022-08-25T05:16:51.717Z,95634
2022-08-25T05:18:00.351Z,95637
2022-08-25T05:19:09.003Z,95636
2022-08-25T05:20:18.676Z,95636
2022-08-25T05:21:26.340Z,95635
2022-08-25T05:22:36.032Z,95635
2022-08-25T05:23:45.712Z,95639
2022-08-25T05:24:53.373Z,95633
2022-08-25T05:26:02.043Z,95638
2022-08-25T05:27:11.705Z,95635
2022-08-25T05:28:20.373Z,95638
2022-08-25T05:29:30.034Z,95637
2022-08-25T05:30:38.696Z,95634
2022-08-25T05:31:50.516Z,95631
2022-08-25T05:32:58.011Z,95634
2022-08-25T05:34:06.674Z,95630
2022-08-25T05:35:15.442Z,95630
2022-08-25T05:36:24.121Z,95629
2022-08-25T05:37:32.833Z,95625
2022-08-25T05:38:42.499Z,95626
2022-08-25T05:39:51.198Z,95624
2022-08-25T05:41:00.813Z,95621
2022-08-25T05:42:10.473Z,95628
2022-08-25T05:43:20.315Z,95628
2022-08-25T05:44:28.979Z,95627
2022-08-25T05:45:37.698Z,95624
2022-08-25T05:46:47.298Z,95625
2022-08-25T05:47:56.987Z,95622
2022-08-25T05:49:05.683Z,95624
2022-08-25T05:50:15.328Z,95631
2022-08-25T05:51:25.041Z,95630
2022-08-25T05:52:34.743Z,95630
2022-08-25T05:53:43.499Z,95632
2022-08-25T05:54:52.171Z,95633
2022-08-25T05:56:01.846Z,95633
2022-08-25T05:57:10.508Z,95631
2022-08-25T05:58:19.160Z,95633
2022-08-25T05:59:28.982Z,95633
2022-08-25T06:00:37.712Z,95629
2022-08-25T06:01:46.305Z,95624
2022-08-25T06:02:55.993Z,95628
2022-08-25T06:04:04.731Z,95626
2022-08-25T06:05:14.321Z,95628
2022-08-25T06:06:23.029Z,95628
2022-08-25T06:07:31.691Z,95628
2022-08-25T06:08:41.351Z,95627
2022-08-25T06:09:49.001Z,95623
2022-08-25T06:10:58.645Z,95622
2022-08-25T06:12:08.337Z,95621
2022-08-25T06:13:17.015Z,95619
2022-08-25T06:14:27.646Z,95621
2022-08-25T06:15:36.343Z,95614
2022-08-25T06:16:45.031Z,95614
2022-08-25T06:17:57.802Z,95612
2022-08-25T06:19:05.365Z,95613
2022-08-25T06:20:14.041Z,95609
2022-08-25T06:21:24.817Z,95608
2022-08-25T06:22:32.451Z,95612
2022-08-25T06:23:41.119Z,95610
2022-08-25T06:24:49.768Z,95609
2022-08-25T06:25:58.430Z,95615
2022-08-25T06:27:08.079Z,95611
2022-08-25T06:28:16.733Z,95612
2022-08-25T06:29:26.408Z,95611
2022-08-25T06:30:37.072Z,95608
2022-08-25T06:31:44.790Z,95608
2022-08-25T06:32:53.405Z,95608
2022-08-25T06:34:03.064Z,95613
2022-08-25T06:35:11.757Z,95609
2022-08-25T06:36:21.403Z,95611
2022-08-25T06:37:29.059Z,95612
2022-08-25T06:38:37.791Z,95610
2022-08-25T06:39:47.517Z,95609
2022-08-25T06:40:56.145Z,95608
2022-08-25T06:42:05.819Z,95611
2022-08-25T06:43:14.512Z,95614
2022-08-25T06:44:23.186Z,95611
2022-08-25T06:45:32.844Z,95613
2022-08-25T06:46:40.730Z,95619
2022-08-25T06:47:49.341Z,95620
2022-08-25T06:48:59.013Z,95620
2022-08-25T06:50:07.688Z,95621
2022-08-25T06:51:16.352Z,95620
2022-08-25T06:52:29.093Z,95625
2022-08-25T06:53:35.741Z,95625
2022-08-25T06:54:45.403Z,95628
2022-08-25T06:56:05.993Z,95631
2022-08-25T06:57:10.816Z,95626
2022-08-25T06:58:20.531Z,95630
2022-08-25T06:59:32.074Z,95624
2022-08-25T07:00:38.886Z,95623
2022-08-25T07:01:49.529Z,95623
2022-08-25T07:02:58.332Z,95626
2022-08-25T07:04:11.975Z,95623
2022-08-25T07:07:21.856Z,95627
2022-08-25T07:08:32.552Z,95624
2022-08-25T07:09:41.291Z,95626
2022-08-25T07:10:50.964Z,95628
2022-08-25T07:12:01.690Z,95628
2022-08-25T07:13:10.360Z,95631
2022-08-25T07:14:20.058Z,95634
2022-08-25T07:15:29.820Z,95629
2022-08-25T07:16:38.547Z,95631
2022-08-25T07:17:48.175Z,95632
2022-08-25T07:18:56.836Z,95630
2022-08-25T07:20:06.536Z,95635
2022-08-25T07:21:16.277Z,95634
2022-08-25T07:22:25.911Z,95632
2022-08-25T07:23:34.552Z,95625
2022-08-25T07:24:44.214Z,95624
2022-08-25T07:25:51.855Z,95624
2022-08-25T07:27:00.533Z,95625
2022-08-25T07:28:09.331Z,95626
2022-08-25T07:29:17.820Z,95623
2022-08-25T07:30:28.501Z,95627
2022-08-25T07:31:38.291Z,95623
2022-08-25T07:32:46.819Z,95623
2022-08-25T07:33:57.454Z,95627
2022-08-25T07:35:05.095Z,95626
2022-08-25T07:36:15.721Z,95629
2022-08-25T07:37:47.340Z,95628
2022-08-25T07:38:36.018Z,95628
2022-08-25T07:39:45.691Z,95624
2022-08-25T07:40:54.304Z,95627
2022-08-25T07:42:02.957Z,95629
2022-08-25T07:43:13.600Z,95624
2022-08-25T07:44:22.288Z,95626
2022-08-25T07:45:29.914Z,95624
2022-08-25T07:46:40.620Z,95627
2022-08-25T07:47:51.535Z,95625
2022-08-25T07:48:59.037Z,95628
2022-08-25T07:50:06.780Z,95628
2022-08-25T07:51:15.431Z,95627
2022-08-25T07:52:25.051Z,95625
2022-08-25T07:53:32.707Z,95622
2022-08-25T07:54:42.376Z,95625
2022-08-25T07:55:53.553Z,95627
2022-08-25T07:57:00.678Z,95628
2022-08-25T07:58:09.363Z,95628
2022-08-25T07:59:18.016Z,95627
2022-08-25T08:00:27.987Z,95633
2022-08-25T08:01:35.420Z,95626
2022-08-25T08:02:45.026Z,95628
2022-08-25T08:03:54.718Z,95628
2022-08-25T08:05:05.305Z,95638
2022-08-25T08:06:13.950Z,95635
2022-08-25T08:07:23.628Z,95634
2022-08-25T08:08:34.268Z,95636
2022-08-25T08:09:44.927Z,95641
2022-08-25T08:11:04.444Z,95642
2022-08-25T08:12:04.192Z,95641
2022-08-25T08:13:17.854Z,95643
2022-08-25T08:14:23.562Z,95635
2022-08-25T08:15:31.300Z,95636
2022-08-25T08:16:40.954Z,95640
2022-08-25T08:17:49.616Z,95637
2022-08-25T08:19:00.290Z,95639
2022-08-25T08:20:08.960Z,95638
2022-08-25T08:21:18.993Z,95631
2022-08-25T08:22:28.252Z,95634
2022-08-25T08:23:36.912Z,95636
2022-08-25T08:24:54.408Z,95627
2022-08-25T08:25:57.210Z,95629
2022-08-25T08:27:05.863Z,95629
2022-08-25T08:28:15.528Z,95631
2022-08-25T08:29:24.187Z,95628
2022-08-25T08:30:33.867Z,95630
2022-08-25T08:31:48.334Z,95627
2022-08-25T08:33:09.511Z,95627
2022-08-25T08:34:03.823Z,95629
2022-08-25T08:35:12.501Z,95632
2022-08-25T08:36:21.183Z,95626
2022-08-25T08:37:30.835Z,95631
2022-08-25T08:38:40.436Z,95632
2022-08-25T08:39:48.145Z,95627
2022-08-25T08:40:57.791Z,95628
2022-08-25T08:42:11.037Z,95629
2022-08-25T08:43:18.296Z,95630
2022-08-25T08:44:26.748Z,95628
2022-08-25T08:45:35.366Z,95629
2022-08-25T08:46:45.147Z,95620
2022-08-25T08:47:55.780Z,95617
2022-08-25T08:49:04.395Z,95622
2022-08-25T08:50:14.545Z,95621
2022-08-25T08:51:24.723Z,95621
2022-08-25T08:52:34.348Z,95615
2022-08-25T08:53:44.136Z,95613
2022-08-25T08:54:52.822Z,95612
2022-08-25T08:56:02.476Z,95615
2022-08-25T08:57:12.120Z,95614
2022-08-25T08:58:26.148Z,95606
2022-08-25T08:59:31.413Z,95605
2022-08-25T09:00:41.062Z,95605
2022-08-25T09:01:54.097Z,95609
2022-08-25T09:03:00.376Z,95612
2022-08-25T09:04:10.018Z,95608
2022-08-25T09:05:19.999Z,95608
2022-08-25T09:06:29.577Z,95607
2022-08-25T09:07:38.235Z,95605
2022-08-25T09:08:48.920Z,95596
2022-08-25T09:09:56.584Z,95595
2022-08-25T09:11:06.322Z,95599
2022-08-25T09:12:17.107Z,95592
2022-08-25T09:13:26.017Z,95593
2022-08-25T09:14:33.296Z,95593
2022-08-25T09:15:41.969Z,95586
2022-08-25T09:16:50.644Z,95590
2022-08-25T09:18:00.642Z,95590
2022-08-25T09:19:10.956Z,95592
2022-08-25T09:20:19.636Z,95590
2022-08-25T09:21:29.321Z,95590
2022-08-25T09:22:37.019Z,95591
2022-08-25T09:23:46.677Z,95589
2022-08-25T09:24:55.328Z,95588
2022-08-25T09:26:04.007Z,95592
2022-08-25T09:27:13.703Z,95593
2022-08-25T09:28:21.391Z,95597
2022-08-25T09:29:30.095Z,95599
2022-08-25T09:30:40.752Z,95599
2022-08-25T09:31:48.478Z,95595
2022-08-25T09:32:57.098Z,95594
2022-08-25T09:34:07.793Z,95591
2022-08-25T09:35:17.443Z,95593
2022-08-25T09:36:27.473Z,95591
2022-08-25T09:37:37.826Z,95592
2022-08-25T09:38:46.477Z,95591
2022-08-25T09:39:55.244Z,95595
2022-08-25T09:41:04.815Z,95593
2022-08-25T09:42:13.488Z,95591
2022-08-25T09:43:23.156Z,95592
2022-08-25T09:44:32.951Z,95592
2022-08-25T09:45:42.636Z,95590
2022-08-25T09:46:51.167Z,95586
2022-08-25T09:47:59.933Z,95582
2022-08-25T09:49:09.555Z,95584
2022-08-25T09:50:18.529Z,95584
2022-08-25T09:51:27.957Z,95581
2022-08-25T09:52:37.595Z,95582
2022-08-25T09:53:46.248Z,95578
2022-08-25T09:54:54.921Z,95579
2022-08-25T09:56:03.606Z,95580
2022-08-25T09:57:14.393Z,95579
2022-08-25T09:58:24.039Z,95579
2022-08-25T09:59:34.779Z,95584
2022-08-25T10:00:44.331Z,95577
2022-08-25T10:01:52.170Z,95572
2022-08-25T10:03:05.788Z,95570
2022-08-25T10:04:19.092Z,95568
2022-08-25T10:05:23.304Z,95567
2022-08-25T10:06:31.724Z,95564
2022-08-25T10:07:40.409Z,95557
2022-08-25T10:08:50.090Z,95562
2022-08-25T10:09:59.756Z,95563
2022-08-25T10:11:09.406Z,95565
2022-08-25T10:12:20.097Z,95559
2022-08-25T10:13:30.736Z,95557
2022-08-25T10:14:39.452Z,95560
2022-08-25T10:15:50.171Z,95557
2022-08-25T10:16:59.831Z,95553
2022-08-25T10:18:09.487Z,95551
2022-08-25T10:19:23.333Z,95558
2022-08-25T10:20:33.121Z,95555
2022-08-25T10:21:41.172Z,95563
2022-08-25T10:22:50.970Z,95564
2022-08-25T10:24:00.637Z,95568
2022-08-25T10:25:10.377Z,95563
2022-08-25T10:26:18.079Z,95564
2022-08-25T10:27:28.774Z,95560
2022-08-25T10:28:37.435Z,95558
2022-08-25T10:29:45.151Z,95559
2022-08-25T10:30:53.840Z,95550
2022-08-25T10:32:03.509Z,95548
2022-08-25T10:33:13.181Z,95550
2022-08-25T10:34:22.852Z,95539
2022-08-25T10:35:30.510Z,95543
2022-08-25T10:36:39.187Z,95541
2022-08-25T10:37:49.856Z,95544
2022-08-25T10:38:57.503Z,95542
2022-08-25T10:40:08.226Z,95545
2022-08-25T10:41:18.819Z,95542
2022-08-25T10:42:27.463Z,95541
2022-08-25T10:43:36.169Z,95544
2022-08-25T10:44:42.827Z,95544
2022-08-25T10:45:51.504Z,95543
2022-08-25T10:47:02.103Z,95539
2022-08-25T10:48:09.823Z,95546
2022-08-25T10:49:18.498Z,95546
2022-08-25T10:50:27.150Z,95552
2022-08-25T10:51:35.813Z,95549
2022-08-25T10:52:44.457Z,95542
2022-08-25T10:53:52.217Z,95547
2022-08-25T10:55:00.936Z,95545
2022-08-25T10:56:10.584Z,95548
2022-08-25T10:57:19.277Z,95544
2022-08-25T10:58:30.575Z,95543
2022-08-25T10:59:38.634Z,95545
2022-08-25T11:00:48.445Z,95545
2022-08-25T11:01:58.094Z,95544
2022-08-25T11:03:05.776Z,95542
2022-08-25T11:04:14.492Z,95544
2022-08-25T11:05:25.141Z,95547
2022-08-25T11:06:34.742Z,95543
2022-08-25T11:07:44.408Z,95544
2022-08-25T11:08:53.069Z,95533
2022-08-25T11:10:02.726Z,95534
2022-08-25T11:11:12.397Z,95533
2022-08-25T11:12:21.069Z,95532
2022-08-25T11:13:30.716Z,95529
2022-08-25T11:14:40.393Z,95518
2022-08-25T11:16:06.462Z,95525
2022-08-25T11:16:57.726Z,95521
2022-08-25T11:18:10.260Z,95532
2022-08-25T11:19:18.139Z,95528
2022-08-25T11:20:27.890Z,95535
2022-08-25T11:21:36.497Z,95528
2022-08-25T11:22:45.185Z,95531
2022-08-25T11:23:54.894Z,95532
2022-08-25T11:25:03.657Z,95528
2022-08-25T11:26:12.190Z,95524
2022-08-25T11:27:22.835Z,95522
2022-08-25T11:28:32.534Z,95519
2022-08-25T11:29:42.236Z,95517
2022-08-25T11:30:49.940Z,95519
2022-08-25T11:31:59.546Z,95510
2022-08-25T11:33:09.196Z,95510
2022-08-25T11:34:18.505Z,95506
2022-08-25T11:35:25.539Z,95510
2022-08-25T11:36:34.185Z,95509
2022-08-25T11:37:43.828Z,95514
2022-08-25T11:38:52.474Z,95519
2022-08-25T11:40:00.213Z,95511
2022-08-25T11:41:10.941Z,95512
2022-08-25T11:42:20.468Z,95506
2022-08-25T11:43:30.101Z,95512
2022-08-25T11:44:45.572Z,95501
2022-08-25T11:45:54.037Z,95499
2022-08-25T11:47:00.099Z,95501
2022-08-25T11:48:09.721Z,95497
2022-08-25T11:49:18.375Z,95494
2022-08-25T11:50:30.018Z,95488
2022-08-25T11:51:37.660Z,95486
2022-08-25T11:52:47.323Z,95492
2022-08-25T11:53:56.971Z,95488
2022-08-25T11:55:06.644Z,95493
2022-08-25T11:56:15.300Z,95494
2022-08-25T11:57:24.970Z,95490
2022-08-25T11:58:33.674Z,95490
2022-08-25T11:59:43.335Z,95485
2022-08-25T12:00:51.987Z,95490
2022-08-25T12:02:00.633Z,95489
2022-08-25T12:03:10.298Z,95494
2022-08-25T12:04:19.148Z,95496
2022-08-25T12:05:26.833Z,95498
2022-08-25T12:06:36.416Z,95499
2022-08-25T12:07:45.064Z,95494
2022-08-25T12:08:57.467Z,95495
2022-08-25T12:10:04.350Z,95493
2022-08-25T12:11:13.019Z,95494
2022-08-25T12:12:22.713Z,95494
2022-08-25T12:13:31.411Z,95499
2022-08-25T12:14:41.186Z,95491
2022-08-25T12:15:50.875Z,95492
2022-08-25T12:16:59.602Z,95494
2022-08-25T12:18:09.409Z,95487
2022-08-25T12:19:18.918Z,95483
2022-08-25T12:20:27.561Z,95490
2022-08-25T12:21:37.279Z,95492
2022-08-25T12:22:46.991Z,95489
2022-08-25T12:23:55.637Z,95492
2022-08-25T12:25:05.309Z,95493
2022-08-25T12:26:13.980Z,95490
2022-08-25T12:27:23.643Z,95489
2022-08-25T12:28:34.832Z,95492
2022-08-25T12:29:42.938Z,95496
2022-08-25T12:30:53.670Z,95486
2022-08-25T12:32:02.421Z,95488
2022-08-25T12:33:12.016Z,95489
2022-08-25T12:34:20.583Z,95491
2022-08-25T12:35:30.212Z,95492
2022-08-25T12:36:39.879Z,95488
2022-08-25T12:37:47.552Z,95494
2022-08-25T12:38:56.267Z,95490
2022-08-25T12:40:07.002Z,95486
2022-08-25T12:41:15.588Z,95491
2022-08-25T12:42:26.451Z,95490
2022-08-25T12:43:37.410Z,95485
2022-08-25T12:44:45.703Z,95482
2022-08-25T12:45:55.375Z,95487
2022-08-25T12:47:04.997Z,95488
2022-08-25T12:48:14.630Z,95489
2022-08-25T12:49:23.289Z,95486
2022-08-25T12:50:31.981Z,95485
2022-08-25T12:51:41.654Z,95486
2022-08-25T12:52:51.362Z,95484
2022-08-25T12:54:00.038Z,95478
2022-08-25T12:55:10.705Z,95487
2022-08-25T12:56:20.415Z,95484
2022-08-25T12:57:30.113Z,95480
2022-08-25T12:58:58.653Z,95480
2022-08-25T12:59:51.369Z,95480
2022-08-25T13:01:01.187Z,95475
2022-08-25T13:02:10.809Z,95475
2022-08-25T13:03:20.450Z,95471
2022-08-25T13:04:29.998Z,95480
2022-08-25T13:05:38.653Z,95471
2022-08-25T13:06:47.331Z,95467
2022-08-25T13:07:57.143Z,95472
2022-08-25T13:09:08.374Z,95472
2022-08-25T13:10:16.423Z,95461
2022-08-25T13:11:25.074Z,95462
2022-08-25T13:12:34.722Z,95469
2022-08-25T13:13:44.407Z,95467
2022-08-25T13:14:52.101Z,95466
2022-08-25T13:16:01.757Z,95465
2022-08-25T13:17:11.416Z,95464
2022-08-25T13:18:19.066Z,95459
2022-08-25T13:19:27.739Z,95465
2022-08-25T13:20:37.366Z,95457
2022-08-25T13:21:47.011Z,95457
2022-08-25T13:22:57.765Z,95460
2022-08-25T13:24:07.329Z,95459
2022-08-25T13:25:17.826Z,95454
2022-08-25T13:26:27.672Z,95454
2022-08-25T13:27:36.366Z,95447
2022-08-25T13:28:50.100Z,95448
2022-08-25T13:29:56.663Z,95455
2022-08-25T13:31:06.370Z,95457
2022-08-25T13:32:16.054Z,95453
2022-08-25T13:33:25.151Z,95454
2022-08-25T13:34:35.274Z,95453
2022-08-25T13:35:45.032Z,95450
2022-08-25T13:36:54.145Z,95452
2022-08-25T13:38:03.485Z,95450
2022-08-25T13:39:13.094Z,95447
2022-08-25T13:40:24.681Z,95445
2022-08-25T13:41:34.387Z,95445
2022-08-25T13:42:44.333Z,95448
2022-08-25T13:43:51.716Z,95447
2022-08-25T13:45:01.367Z,95453
2022-08-25T13:46:10.662Z,95449
2022-08-25T13:47:18.633Z,95452
2022-08-25T13:48:28.303Z,95445
2022-08-25T13:49:36.965Z,95444
2022-08-25T13:50:47.573Z,95445
2022-08-25T13:51:56.273Z,95443
2022-08-25T13:53:04.930Z,95444
2022-08-25T13:54:14.615Z,95445
2022-08-25T13:55:27.542Z,95448
2022-08-25T13:56:38.685Z,95445
2022-08-25T13:57:44.516Z,95447
2022-08-25T13:58:53.187Z,95449
2022-08-25T14:00:02.869Z,95445
2022-08-25T14:01:22.475Z,95450
2022-08-25T14:02:23.243Z,95451
2022-08-25T14:03:33.249Z,95450
2022-08-25T14:04:50.917Z,95442
2022-08-25T14:05:53.122Z,95438
2022-08-25T14:07:01.789Z,95442
2022-08-25T14:08:23.298Z,95447
2022-08-25T14:09:28.116Z,95446
2022-08-25T14:10:31.705Z,95440
2022-08-25T14:11:41.493Z,95448
2022-08-25T14:12:51.218Z,95447
2022-08-25T14:14:00.797Z,95446
2022-08-25T14:15:10.442Z,95443
2022-08-25T14:16:19.143Z,95460
2022-08-25T14:17:36.445Z,95455
2022-08-25T14:18:39.435Z,95452
2022-08-25T14:19:48.085Z,95456
2022-08-25T14:20:57.784Z,95456
2022-08-25T14:22:06.426Z,95453
2022-08-25T14:23:18.819Z,95455
2022-08-25T14:24:26.759Z,95446
2022-08-25T14:25:35.401Z,95442
2022-08-25T14:26:53.796Z,95443
2022-08-25T14:28:16.355Z,95448
2022-08-25T14:29:06.358Z,95446
2022-08-25T14:30:16.131Z,95444
2022-08-25T14:31:26.810Z,95440
2022-08-25T14:32:36.458Z,95445
2022-08-25T14:33:48.937Z,95443
2022-08-25T14:34:55.792Z,95447
2022-08-25T14:36:06.440Z,95450
2022-08-25T14:37:15.431Z,95440
2022-08-25T14:38:24.721Z,95448
2022-08-25T14:39:35.382Z,95437
2022-08-25T14:40:46.082Z,95434
2022-08-25T14:41:54.824Z,95432
2022-08-25T14:43:04.558Z,95428
2022-08-25T14:44:14.139Z,95429
2022-08-25T14:45:23.852Z,95433
2022-08-25T14:46:32.503Z,95436
2022-08-25T14:47:41.188Z,95436
2022-08-25T14:48:51.850Z,95437
2022-08-25T14:50:00.500Z,95437
2022-08-25T14:51:10.194Z,95432
2022-08-25T14:52:19.904Z,95437
2022-08-25T14:53:27.554Z,95430
2022-08-25T14:54:37.799Z,95435